sensor_id;sensor_type;location;lat;lon;timestamp;P1;durP1;ratioP1;P2;durP2;ratioP2
26014;SDS011;13793;55.388;37.844;2023-11-21T00:01:41;18.13;;;9.33;;
26014;SDS011;13793;55.388;37.844;2023-11-21T00:04:13;16.07;;;9.17;;
26014;SDS011;13793;55.388;37.844;2023-11-21T00:06:44;15.17;;;8.83;;
26014;SDS011;13793;55.388;37.844;2023-11-21T00:09:15;17.90;;;8.93;;
26014;SDS011;13793;55.388;37.844;2023-11-21T00:11:46;13.77;;;8.57;;
26014;SDS011;13793;55.388;37.844;2023-11-21T00:14:20;14.90;;;9.80;;
26014;SDS011;13793;55.388;37.844;2023-11-21T00:16:51;16.73;;;9.57;;
26014;SDS011;13793;55.388;37.844;2023-11-21T00:19:23;13.67;;;9.00;;
26014;SDS011;13793;55.388;37.844;2023-11-21T00:21:54;16.13;;;9.57;;
26014;SDS011;13793;55.388;37.844;2023-11-21T00:24:26;19.13;;;9.73;;
26014;SDS011;13793;55.388;37.844;2023-11-21T00:26:57;17.77;;;9.73;;
26014;SDS011;13793;55.388;37.844;2023-11-21T00:29:28;16.27;;;9.60;;
26014;SDS011;13793;55.388;37.844;2023-11-21T00:32:00;15.63;;;9.37;;
26014;SDS011;13793;55.388;37.844;2023-11-21T00:34:31;15.43;;;8.97;;
26014;SDS011;13793;55.388;37.844;2023-11-21T00:37:02;18.77;;;9.73;;
26014;SDS011;13793;55.388;37.844;2023-11-21T00:39:34;16.33;;;9.33;;
26014;SDS011;13793;55.388;37.844;2023-11-21T00:42:05;15.73;;;9.47;;
26014;SDS011;13793;55.388;37.844;2023-11-21T00:44:40;17.40;;;8.57;;
26014;SDS011;13793;55.388;37.844;2023-11-21T00:47:11;14.27;;;9.50;;
26014;SDS011;13793;55.388;37.844;2023-11-21T00:49:42;16.03;;;9.20;;
26014;SDS011;13793;55.388;37.844;2023-11-21T00:52:13;15.67;;;10.07;;
26014;SDS011;13793;55.388;37.844;2023-11-21T00:54:44;17.60;;;9.97;;
26014;SDS011;13793;55.388;37.844;2023-11-21T00:57:16;14.30;;;9.13;;
26014;SDS011;13793;55.388;37.844;2023-11-21T00:59:48;15.40;;;9.07;;
26014;SDS011;13793;55.388;37.844;2023-11-21T01:02:19;17.60;;;9.97;;
26014;SDS011;13793;55.388;37.844;2023-11-21T01:04:50;14.57;;;9.33;;
26014;SDS011;13793;55.388;37.844;2023-11-21T01:07:21;15.60;;;9.53;;
26014;SDS011;13793;55.388;37.844;2023-11-21T01:09:53;15.77;;;9.33;;
26014;SDS011;13793;55.388;37.844;2023-11-21T01:12:25;16.63;;;9.73;;
26014;SDS011;13793;55.388;37.844;2023-11-21T01:14:57;16.80;;;9.60;;
26014;SDS011;13793;55.388;37.844;2023-11-21T01:17:30;13.80;;;8.83;;
26014;SDS011;13793;55.388;37.844;2023-11-21T01:20:01;15.10;;;9.60;;
26014;SDS011;13793;55.388;37.844;2023-11-21T01:22:34;18.00;;;9.57;;
26014;SDS011;13793;55.388;37.844;2023-11-21T01:25:05;15.37;;;9.87;;
26014;SDS011;13793;55.388;37.844;2023-11-21T01:27:37;15.33;;;9.67;;
26014;SDS011;13793;55.388;37.844;2023-11-21T01:30:08;16.43;;;9.30;;
26014;SDS011;13793;55.388;37.844;2023-11-21T01:32:39;16.83;;;9.70;;
26014;SDS011;13793;55.388;37.844;2023-11-21T01:35:11;13.90;;;8.67;;
26014;SDS011;13793;55.388;37.844;2023-11-21T01:37:42;14.27;;;8.77;;
26014;SDS011;13793;55.388;37.844;2023-11-21T01:40:13;14.87;;;9.90;;
26014;SDS011;13793;55.388;37.844;2023-11-21T01:42:45;14.77;;;9.07;;
26014;SDS011;13793;55.388;37.844;2023-11-21T01:45:16;12.13;;;8.87;;
26014;SDS011;13793;55.388;37.844;2023-11-21T01:47:49;15.37;;;9.57;;
26014;SDS011;13793;55.388;37.844;2023-11-21T01:50:20;14.07;;;8.60;;
26014;SDS011;13793;55.388;37.844;2023-11-21T01:52:51;17.50;;;8.90;;
26014;SDS011;13793;55.388;37.844;2023-11-21T01:55:23;14.97;;;8.63;;
26014;SDS011;13793;55.388;37.844;2023-11-21T01:57:56;16.40;;;8.73;;
26014;SDS011;13793;55.388;37.844;2023-11-21T02:00:27;14.10;;;8.90;;
26014;SDS011;13793;55.388;37.844;2023-11-21T02:02:58;14.47;;;8.77;;
26014;SDS011;13793;55.388;37.844;2023-11-21T02:05:30;14.00;;;8.93;;
26014;SDS011;13793;55.388;37.844;2023-11-21T02:08:01;13.93;;;8.30;;
26014;SDS011;13793;55.388;37.844;2023-11-21T02:10:33;16.63;;;8.70;;
26014;SDS011;13793;55.388;37.844;2023-11-21T02:13:05;14.43;;;9.03;;
26014;SDS011;13793;55.388;37.844;2023-11-21T02:15:36;13.80;;;9.13;;
26014;SDS011;13793;55.388;37.844;2023-11-21T02:18:08;13.47;;;8.50;;
26014;SDS011;13793;55.388;37.844;2023-11-21T02:20:39;13.97;;;8.40;;
26014;SDS011;13793;55.388;37.844;2023-11-21T02:23:11;12.80;;;8.60;;
26014;SDS011;13793;55.388;37.844;2023-11-21T02:25:43;11.67;;;8.33;;
26014;SDS011;13793;55.388;37.844;2023-11-21T02:28:17;13.60;;;8.50;;
26014;SDS011;13793;55.388;37.844;2023-11-21T02:30:49;14.00;;;9.07;;
26014;SDS011;13793;55.388;37.844;2023-11-21T02:33:22;14.50;;;8.93;;
26014;SDS011;13793;55.388;37.844;2023-11-21T02:35:54;12.97;;;7.80;;
26014;SDS011;13793;55.388;37.844;2023-11-21T02:38:25;13.43;;;8.63;;
26014;SDS011;13793;55.388;37.844;2023-11-21T02:40:57;13.23;;;8.20;;
26014;SDS011;13793;55.388;37.844;2023-11-21T02:43:34;15.37;;;8.33;;
26014;SDS011;13793;55.388;37.844;2023-11-21T02:46:08;13.67;;;8.00;;
26014;SDS011;13793;55.388;37.844;2023-11-21T02:48:40;12.37;;;8.17;;
26014;SDS011;13793;55.388;37.844;2023-11-21T02:51:12;11.77;;;7.83;;
26014;SDS011;13793;55.388;37.844;2023-11-21T02:53:44;11.53;;;7.50;;
26014;SDS011;13793;55.388;37.844;2023-11-21T02:56:15;12.77;;;7.77;;
26014;SDS011;13793;55.388;37.844;2023-11-21T02:58:46;12.33;;;7.83;;
26014;SDS011;13793;55.388;37.844;2023-11-21T03:01:17;13.80;;;8.57;;
26014;SDS011;13793;55.388;37.844;2023-11-21T03:03:49;12.87;;;8.47;;
26014;SDS011;13793;55.388;37.844;2023-11-21T03:06:24;14.90;;;8.13;;
26014;SDS011;13793;55.388;37.844;2023-11-21T03:08:56;12.60;;;8.20;;
26014;SDS011;13793;55.388;37.844;2023-11-21T03:11:27;13.83;;;8.20;;
26014;SDS011;13793;55.388;37.844;2023-11-21T03:13:58;12.50;;;8.23;;
26014;SDS011;13793;55.388;37.844;2023-11-21T03:16:29;12.13;;;7.93;;
26014;SDS011;13793;55.388;37.844;2023-11-21T03:19:00;11.77;;;7.37;;
26014;SDS011;13793;55.388;37.844;2023-11-21T03:21:31;13.07;;;7.90;;
26014;SDS011;13793;55.388;37.844;2023-11-21T03:24:03;11.60;;;7.60;;
26014;SDS011;13793;55.388;37.844;2023-11-21T03:26:36;14.97;;;8.27;;
26014;SDS011;13793;55.388;37.844;2023-11-21T03:29:07;12.80;;;8.10;;
26014;SDS011;13793;55.388;37.844;2023-11-21T03:31:39;12.93;;;7.70;;
26014;SDS011;13793;55.388;37.844;2023-11-21T03:34:14;15.87;;;8.10;;
26014;SDS011;13793;55.388;37.844;2023-11-21T03:36:46;16.80;;;9.00;;
26014;SDS011;13793;55.388;37.844;2023-11-21T03:39:17;14.33;;;9.20;;
26014;SDS011;13793;55.388;37.844;2023-11-21T03:41:51;12.80;;;8.27;;
26014;SDS011;13793;55.388;37.844;2023-11-21T03:44:22;11.77;;;8.53;;
26014;SDS011;13793;55.388;37.844;2023-11-21T03:46:54;12.13;;;8.43;;
26014;SDS011;13793;55.388;37.844;2023-11-21T03:49:25;15.10;;;8.30;;
26014;SDS011;13793;55.388;37.844;2023-11-21T03:51:56;11.93;;;7.37;;
26014;SDS011;13793;55.388;37.844;2023-11-21T03:54:27;17.53;;;7.33;;
26014;SDS011;13793;55.388;37.844;2023-11-21T03:56:59;10.87;;;7.57;;
26014;SDS011;13793;55.388;37.844;2023-11-21T03:59:31;12.77;;;7.10;;
26014;SDS011;13793;55.388;37.844;2023-11-21T04:02:01;12.83;;;7.23;;
26014;SDS011;13793;55.388;37.844;2023-11-21T04:04:33;11.17;;;7.20;;
26014;SDS011;13793;55.388;37.844;2023-11-21T04:07:04;12.70;;;7.00;;
26014;SDS011;13793;55.388;37.844;2023-11-21T04:09:35;13.73;;;7.23;;
26014;SDS011;13793;55.388;37.844;2023-11-21T04:12:06;13.47;;;7.27;;
26014;SDS011;13793;55.388;37.844;2023-11-21T04:14:39;10.63;;;7.30;;
26014;SDS011;13793;55.388;37.844;2023-11-21T04:17:10;8.40;;;6.33;;
26014;SDS011;13793;55.388;37.844;2023-11-21T04:19:41;10.80;;;6.83;;
26014;SDS011;13793;55.388;37.844;2023-11-21T04:22:11;13.03;;;7.30;;
26014;SDS011;13793;55.388;37.844;2023-11-21T04:24:43;9.20;;;6.77;;
26014;SDS011;13793;55.388;37.844;2023-11-21T04:27:14;10.67;;;6.77;;
26014;SDS011;13793;55.388;37.844;2023-11-21T04:29:47;13.40;;;7.10;;
26014;SDS011;13793;55.388;37.844;2023-11-21T04:32:18;11.77;;;7.23;;
26014;SDS011;13793;55.388;37.844;2023-11-21T04:34:48;10.50;;;7.13;;
26014;SDS011;13793;55.388;37.844;2023-11-21T04:37:19;11.03;;;7.07;;
26014;SDS011;13793;55.388;37.844;2023-11-21T04:39:50;13.27;;;6.77;;
26014;SDS011;13793;55.388;37.844;2023-11-21T04:42:21;10.80;;;6.77;;
26014;SDS011;13793;55.388;37.844;2023-11-21T04:44:52;11.70;;;7.20;;
26014;SDS011;13793;55.388;37.844;2023-11-21T04:47:26;11.00;;;6.83;;
26014;SDS011;13793;55.388;37.844;2023-11-21T04:49:57;13.33;;;7.57;;
26014;SDS011;13793;55.388;37.844;2023-11-21T04:52:29;13.33;;;6.93;;
26014;SDS011;13793;55.388;37.844;2023-11-21T04:55:02;11.30;;;7.30;;
26014;SDS011;13793;55.388;37.844;2023-11-21T04:57:33;11.00;;;7.30;;
26014;SDS011;13793;55.388;37.844;2023-11-21T05:00:04;11.87;;;7.30;;
26014;SDS011;13793;55.388;37.844;2023-11-21T05:02:36;13.10;;;7.70;;
26014;SDS011;13793;55.388;37.844;2023-11-21T05:05:07;14.20;;;7.03;;
26014;SDS011;13793;55.388;37.844;2023-11-21T05:07:39;10.90;;;7.10;;
26014;SDS011;13793;55.388;37.844;2023-11-21T05:10:11;11.73;;;6.77;;
26014;SDS011;13793;55.388;37.844;2023-11-21T05:12:44;11.23;;;7.70;;
26014;SDS011;13793;55.388;37.844;2023-11-21T05:15:16;12.17;;;7.33;;
26014;SDS011;13793;55.388;37.844;2023-11-21T05:17:47;12.30;;;7.87;;
26014;SDS011;13793;55.388;37.844;2023-11-21T05:20:19;12.97;;;7.60;;
26014;SDS011;13793;55.388;37.844;2023-11-21T05:22:54;13.40;;;7.77;;
26014;SDS011;13793;55.388;37.844;2023-11-21T05:25:25;12.63;;;7.23;;
26014;SDS011;13793;55.388;37.844;2023-11-21T05:27:56;12.50;;;7.67;;
26014;SDS011;13793;55.388;37.844;2023-11-21T05:30:29;12.87;;;7.60;;
26014;SDS011;13793;55.388;37.844;2023-11-21T05:33:00;14.07;;;7.57;;
26014;SDS011;13793;55.388;37.844;2023-11-21T05:35:32;13.07;;;7.30;;
26014;SDS011;13793;55.388;37.844;2023-11-21T05:38:04;13.07;;;7.30;;
26014;SDS011;13793;55.388;37.844;2023-11-21T05:40:35;9.67;;;7.00;;
26014;SDS011;13793;55.388;37.844;2023-11-21T05:43:06;10.87;;;7.43;;
26014;SDS011;13793;55.388;37.844;2023-11-21T05:45:37;13.93;;;8.27;;
26014;SDS011;13793;55.388;37.844;2023-11-21T05:48:09;11.70;;;7.57;;
26014;SDS011;13793;55.388;37.844;2023-11-21T05:50:41;14.00;;;7.50;;
26014;SDS011;13793;55.388;37.844;2023-11-21T05:53:14;14.77;;;8.40;;
26014;SDS011;13793;55.388;37.844;2023-11-21T05:55:45;14.90;;;8.00;;
26014;SDS011;13793;55.388;37.844;2023-11-21T05:58:16;15.33;;;8.47;;
26014;SDS011;13793;55.388;37.844;2023-11-21T06:00:48;12.20;;;7.80;;
26014;SDS011;13793;55.388;37.844;2023-11-21T06:03:19;12.13;;;8.00;;
26014;SDS011;13793;55.388;37.844;2023-11-21T06:05:52;13.27;;;8.10;;
26014;SDS011;13793;55.388;37.844;2023-11-21T06:08:23;16.20;;;7.90;;
26014;SDS011;13793;55.388;37.844;2023-11-21T06:10:53;11.63;;;7.70;;
26014;SDS011;13793;55.388;37.844;2023-11-21T06:13:25;14.00;;;8.43;;
26014;SDS011;13793;55.388;37.844;2023-11-21T06:15:56;15.03;;;9.33;;
26014;SDS011;13793;55.388;37.844;2023-11-21T06:18:27;10.73;;;7.33;;
26014;SDS011;13793;55.388;37.844;2023-11-21T06:20:58;14.40;;;8.30;;
26014;SDS011;13793;55.388;37.844;2023-11-21T06:23:29;12.43;;;8.30;;
26014;SDS011;13793;55.388;37.844;2023-11-21T06:26:00;14.40;;;8.60;;
26014;SDS011;13793;55.388;37.844;2023-11-21T06:28:32;13.43;;;8.27;;
26014;SDS011;13793;55.388;37.844;2023-11-21T06:31:03;12.60;;;8.27;;
26014;SDS011;13793;55.388;37.844;2023-11-21T06:33:34;17.50;;;9.20;;
26014;SDS011;13793;55.388;37.844;2023-11-21T06:36:05;16.00;;;8.40;;
26014;SDS011;13793;55.388;37.844;2023-11-21T06:38:37;14.00;;;7.97;;
26014;SDS011;13793;55.388;37.844;2023-11-21T06:41:08;12.37;;;8.00;;
26014;SDS011;13793;55.388;37.844;2023-11-21T06:43:39;11.80;;;8.00;;
26014;SDS011;13793;55.388;37.844;2023-11-21T06:46:10;14.37;;;9.00;;
26014;SDS011;13793;55.388;37.844;2023-11-21T06:48:43;15.13;;;9.50;;
26014;SDS011;13793;55.388;37.844;2023-11-21T06:51:15;13.60;;;8.80;;
26014;SDS011;13793;55.388;37.844;2023-11-21T06:53:46;14.10;;;8.50;;
26014;SDS011;13793;55.388;37.844;2023-11-21T06:56:17;12.97;;;7.93;;
26014;SDS011;13793;55.388;37.844;2023-11-21T06:58:48;14.97;;;8.83;;
26014;SDS011;13793;55.388;37.844;2023-11-21T07:01:21;13.87;;;8.90;;
26014;SDS011;13793;55.388;37.844;2023-11-21T07:03:55;17.37;;;7.93;;
26014;SDS011;13793;55.388;37.844;2023-11-21T07:06:28;14.70;;;8.67;;
26014;SDS011;13793;55.388;37.844;2023-11-21T07:09:00;12.50;;;8.00;;
26014;SDS011;13793;55.388;37.844;2023-11-21T07:11:32;10.70;;;7.53;;
26014;SDS011;13793;55.388;37.844;2023-11-21T07:14:04;13.00;;;8.83;;
26014;SDS011;13793;55.388;37.844;2023-11-21T07:16:36;11.53;;;7.80;;
26014;SDS011;13793;55.388;37.844;2023-11-21T07:19:07;14.50;;;8.47;;
26014;SDS011;13793;55.388;37.844;2023-11-21T07:21:38;13.23;;;8.37;;
26014;SDS011;13793;55.388;37.844;2023-11-21T07:24:09;15.27;;;8.70;;
26014;SDS011;13793;55.388;37.844;2023-11-21T07:26:40;11.97;;;8.10;;
26014;SDS011;13793;55.388;37.844;2023-11-21T07:29:11;12.60;;;8.10;;
26014;SDS011;13793;55.388;37.844;2023-11-21T07:31:42;11.00;;;7.50;;
26014;SDS011;13793;55.388;37.844;2023-11-21T07:34:15;13.30;;;8.40;;
26014;SDS011;13793;55.388;37.844;2023-11-21T07:36:47;14.17;;;8.03;;
26014;SDS011;13793;55.388;37.844;2023-11-21T07:39:18;15.03;;;8.13;;
26014;SDS011;13793;55.388;37.844;2023-11-21T07:41:50;13.37;;;8.53;;
26014;SDS011;13793;55.388;37.844;2023-11-21T07:44:21;12.50;;;8.20;;
26014;SDS011;13793;55.388;37.844;2023-11-21T07:46:52;13.30;;;8.27;;
26014;SDS011;13793;55.388;37.844;2023-11-21T07:49:24;12.13;;;8.03;;
26014;SDS011;13793;55.388;37.844;2023-11-21T07:51:55;13.73;;;8.23;;
26014;SDS011;13793;55.388;37.844;2023-11-21T07:57:42;10.23;;;7.17;;
26014;SDS011;13793;55.388;37.844;2023-11-21T08:00:14;10.57;;;7.43;;
26014;SDS011;13793;55.388;37.844;2023-11-21T08:02:45;13.80;;;7.67;;
26014;SDS011;13793;55.388;37.844;2023-11-21T08:05:15;18.27;;;8.40;;
26014;SDS011;13793;55.388;37.844;2023-11-21T08:07:47;13.30;;;8.20;;
26014;SDS011;13793;55.388;37.844;2023-11-21T08:10:17;12.47;;;7.43;;
26014;SDS011;13793;55.388;37.844;2023-11-21T08:12:50;13.63;;;8.07;;
26014;SDS011;13793;55.388;37.844;2023-11-21T08:15:22;11.77;;;8.10;;
26014;SDS011;13793;55.388;37.844;2023-11-21T08:17:52;14.37;;;8.40;;
26014;SDS011;13793;55.388;37.844;2023-11-21T08:20:23;13.07;;;8.07;;
26014;SDS011;13793;55.388;37.844;2023-11-21T08:22:54;14.97;;;8.27;;
26014;SDS011;13793;55.388;37.844;2023-11-21T08:25:25;13.23;;;8.73;;
26014;SDS011;13793;55.388;37.844;2023-11-21T08:27:56;13.53;;;7.97;;
26014;SDS011;13793;55.388;37.844;2023-11-21T08:30:28;12.67;;;8.37;;
26014;SDS011;13793;55.388;37.844;2023-11-21T08:32:59;14.00;;;8.77;;
26014;SDS011;13793;55.388;37.844;2023-11-21T08:35:31;12.93;;;8.17;;
26014;SDS011;13793;55.388;37.844;2023-11-21T08:38:02;15.27;;;8.53;;
26014;SDS011;13793;55.388;37.844;2023-11-21T08:40:34;15.27;;;9.13;;
26014;SDS011;13793;55.388;37.844;2023-11-21T08:43:06;13.47;;;8.47;;
26014;SDS011;13793;55.388;37.844;2023-11-21T08:45:36;13.33;;;8.60;;
26014;SDS011;13793;55.388;37.844;2023-11-21T08:48:07;14.90;;;9.47;;
26014;SDS011;13793;55.388;37.844;2023-11-21T08:50:40;14.27;;;9.13;;
26014;SDS011;13793;55.388;37.844;2023-11-21T08:53:11;13.67;;;8.30;;
26014;SDS011;13793;55.388;37.844;2023-11-21T08:55:42;14.40;;;9.10;;
26014;SDS011;13793;55.388;37.844;2023-11-21T08:58:13;15.83;;;8.80;;
26014;SDS011;13793;55.388;37.844;2023-11-21T09:00:45;16.00;;;8.57;;
26014;SDS011;13793;55.388;37.844;2023-11-21T09:03:16;13.47;;;8.70;;
26014;SDS011;13793;55.388;37.844;2023-11-21T09:05:47;13.53;;;8.63;;
26014;SDS011;13793;55.388;37.844;2023-11-21T09:08:18;13.20;;;8.30;;
26014;SDS011;13793;55.388;37.844;2023-11-21T09:10:51;13.70;;;9.03;;
26014;SDS011;13793;55.388;37.844;2023-11-21T09:13:21;13.63;;;8.90;;
26014;SDS011;13793;55.388;37.844;2023-11-21T09:15:53;14.87;;;9.43;;
26014;SDS011;13793;55.388;37.844;2023-11-21T09:18:25;14.53;;;8.80;;
26014;SDS011;13793;55.388;37.844;2023-11-21T09:20:56;14.43;;;9.07;;
26014;SDS011;13793;55.388;37.844;2023-11-21T09:23:27;12.80;;;8.17;;
26014;SDS011;13793;55.388;37.844;2023-11-21T09:25:58;13.47;;;8.40;;
26014;SDS011;13793;55.388;37.844;2023-11-21T09:28:29;13.17;;;7.93;;
26014;SDS011;13793;55.388;37.844;2023-11-21T09:31:00;12.20;;;7.97;;
26014;SDS011;13793;55.388;37.844;2023-11-21T09:33:33;15.67;;;8.33;;
26014;SDS011;13793;55.388;37.844;2023-11-21T09:36:04;13.47;;;8.00;;
26014;SDS011;13793;55.388;37.844;2023-11-21T09:38:36;13.40;;;7.57;;
26014;SDS011;13793;55.388;37.844;2023-11-21T09:41:12;11.87;;;8.13;;
26014;SDS011;13793;55.388;37.844;2023-11-21T09:43:46;13.50;;;7.83;;
26014;SDS011;13793;55.388;37.844;2023-11-21T09:46:17;15.43;;;8.77;;
26014;SDS011;13793;55.388;37.844;2023-11-21T09:48:51;13.00;;;8.13;;
26014;SDS011;13793;55.388;37.844;2023-11-21T09:51:22;13.87;;;7.93;;
26014;SDS011;13793;55.388;37.844;2023-11-21T09:53:56;12.23;;;8.60;;
26014;SDS011;13793;55.388;37.844;2023-11-21T09:56:28;12.50;;;8.30;;
26014;SDS011;13793;55.388;37.844;2023-11-21T09:58:59;12.87;;;7.90;;
26014;SDS011;13793;55.388;37.844;2023-11-21T10:01:33;12.67;;;8.00;;
26014;SDS011;13793;55.388;37.844;2023-11-21T10:04:07;12.87;;;7.83;;
26014;SDS011;13793;55.388;37.844;2023-11-21T10:06:42;11.50;;;8.07;;
26014;SDS011;13793;55.388;37.844;2023-11-21T10:09:17;12.93;;;8.53;;
26014;SDS011;13793;55.388;37.844;2023-11-21T10:11:49;11.57;;;7.57;;
26014;SDS011;13793;55.388;37.844;2023-11-21T10:14:20;11.40;;;8.27;;
26014;SDS011;13793;55.388;37.844;2023-11-21T10:16:53;12.50;;;8.10;;
26014;SDS011;13793;55.388;37.844;2023-11-21T10:19:25;13.07;;;8.20;;
26014;SDS011;13793;55.388;37.844;2023-11-21T10:21:56;14.60;;;8.87;;
26014;SDS011;13793;55.388;37.844;2023-11-21T10:24:28;11.87;;;7.43;;
26014;SDS011;13793;55.388;37.844;2023-11-21T10:26:59;10.93;;;7.73;;
26014;SDS011;13793;55.388;37.844;2023-11-21T10:29:31;10.90;;;7.37;;
26014;SDS011;13793;55.388;37.844;2023-11-21T10:32:03;10.73;;;7.03;;
26014;SDS011;13793;55.388;37.844;2023-11-21T10:34:35;11.90;;;7.27;;
26014;SDS011;13793;55.388;37.844;2023-11-21T10:37:12;11.37;;;7.37;;
26014;SDS011;13793;55.388;37.844;2023-11-21T10:39:44;13.60;;;7.87;;
26014;SDS011;13793;55.388;37.844;2023-11-21T10:42:15;12.23;;;7.23;;
26014;SDS011;13793;55.388;37.844;2023-11-21T10:44:49;11.57;;;7.33;;
26014;SDS011;13793;55.388;37.844;2023-11-21T10:47:20;12.17;;;7.10;;
26014;SDS011;13793;55.388;37.844;2023-11-21T10:49:52;11.13;;;7.70;;
26014;SDS011;13793;55.388;37.844;2023-11-21T10:52:26;12.63;;;7.20;;
26014;SDS011;13793;55.388;37.844;2023-11-21T10:54:56;9.93;;;7.50;;
26014;SDS011;13793;55.388;37.844;2023-11-21T10:57:29;12.27;;;7.70;;
26014;SDS011;13793;55.388;37.844;2023-11-21T11:00:01;12.80;;;8.10;;
26014;SDS011;13793;55.388;37.844;2023-11-21T11:02:33;15.30;;;7.77;;
26014;SDS011;13793;55.388;37.844;2023-11-21T11:05:05;13.80;;;8.13;;
26014;SDS011;13793;55.388;37.844;2023-11-21T11:07:38;11.97;;;8.50;;
26014;SDS011;13793;55.388;37.844;2023-11-21T11:10:11;15.67;;;8.40;;
26014;SDS011;13793;55.388;37.844;2023-11-21T11:12:45;15.83;;;8.30;;
26014;SDS011;13793;55.388;37.844;2023-11-21T11:15:16;12.33;;;8.27;;
26014;SDS011;13793;55.388;37.844;2023-11-21T11:17:47;13.40;;;8.23;;
26014;SDS011;13793;55.388;37.844;2023-11-21T11:20:19;15.83;;;8.73;;
26014;SDS011;13793;55.388;37.844;2023-11-21T11:26:01;11.83;;;7.83;;
26014;SDS011;13793;55.388;37.844;2023-11-21T11:34:44;11.97;;;8.10;;
26014;SDS011;13793;55.388;37.844;2023-11-21T11:36:49;12.50;;;7.93;;
26014;SDS011;13793;55.388;37.844;2023-11-21T11:42:04;12.83;;;7.83;;
26014;SDS011;13793;55.388;37.844;2023-11-21T11:50:07;10.13;;;6.63;;
26014;SDS011;13793;55.388;37.844;2023-11-21T11:52:50;12.10;;;7.20;;
26014;SDS011;13793;55.388;37.844;2023-11-21T11:55:24;14.60;;;8.03;;
26014;SDS011;13793;55.388;37.844;2023-11-21T11:57:56;19.63;;;8.53;;
26014;SDS011;13793;55.388;37.844;2023-11-21T12:03:05;16.03;;;8.53;;
26014;SDS011;13793;55.388;37.844;2023-11-21T12:05:38;13.07;;;8.20;;
26014;SDS011;13793;55.388;37.844;2023-11-21T12:08:11;11.27;;;7.50;;
26014;SDS011;13793;55.388;37.844;2023-11-21T12:10:42;13.23;;;7.57;;
26014;SDS011;13793;55.388;37.844;2023-11-21T12:13:14;13.43;;;7.80;;
26014;SDS011;13793;55.388;37.844;2023-11-21T12:15:45;12.93;;;7.97;;
26014;SDS011;13793;55.388;37.844;2023-11-21T12:18:16;11.50;;;7.83;;
26014;SDS011;13793;55.388;37.844;2023-11-21T12:20:47;11.60;;;7.57;;
26014;SDS011;13793;55.388;37.844;2023-11-21T12:23:19;11.90;;;7.93;;
26014;SDS011;13793;55.388;37.844;2023-11-21T12:25:51;11.60;;;7.60;;
26014;SDS011;13793;55.388;37.844;2023-11-21T12:28:22;15.47;;;8.53;;
26014;SDS011;13793;55.388;37.844;2023-11-21T12:30:53;14.20;;;8.10;;
26014;SDS011;13793;55.388;37.844;2023-11-21T12:33:26;16.10;;;8.30;;
26014;SDS011;13793;55.388;37.844;2023-11-21T12:35:58;13.57;;;8.13;;
26014;SDS011;13793;55.388;37.844;2023-11-21T12:38:33;12.07;;;8.07;;
26014;SDS011;13793;55.388;37.844;2023-11-21T12:41:05;11.97;;;7.93;;
26014;SDS011;13793;55.388;37.844;2023-11-21T12:43:36;15.40;;;8.60;;
26014;SDS011;13793;55.388;37.844;2023-11-21T12:46:08;10.27;;;7.33;;
26014;SDS011;13793;55.388;37.844;2023-11-21T12:48:44;14.90;;;7.90;;
26014;SDS011;13793;55.388;37.844;2023-11-21T12:51:15;13.43;;;8.53;;
26014;SDS011;13793;55.388;37.844;2023-11-21T12:53:47;13.80;;;8.60;;
26014;SDS011;13793;55.388;37.844;2023-11-21T12:56:18;17.47;;;9.03;;
26014;SDS011;13793;55.388;37.844;2023-11-21T12:58:49;16.10;;;9.17;;
26014;SDS011;13793;55.388;37.844;2023-11-21T13:01:21;15.10;;;10.13;;
26014;SDS011;13793;55.388;37.844;2023-11-21T13:03:59;13.73;;;8.97;;
26014;SDS011;13793;55.388;37.844;2023-11-21T13:06:31;14.63;;;9.63;;
26014;SDS011;13793;55.388;37.844;2023-11-21T13:09:03;15.73;;;11.17;;
26014;SDS011;13793;55.388;37.844;2023-11-21T13:11:35;14.57;;;9.03;;
26014;SDS011;13793;55.388;37.844;2023-11-21T13:14:08;14.83;;;9.37;;
26014;SDS011;13793;55.388;37.844;2023-11-21T13:16:40;15.40;;;9.83;;
26014;SDS011;13793;55.388;37.844;2023-11-21T13:19:12;13.97;;;8.67;;
26014;SDS011;13793;55.388;37.844;2023-11-21T13:21:43;10.33;;;7.73;;
26014;SDS011;13793;55.388;37.844;2023-11-21T13:24:14;11.07;;;8.17;;
26014;SDS011;13793;55.388;37.844;2023-11-21T13:26:46;15.60;;;8.37;;
26014;SDS011;13793;55.388;37.844;2023-11-21T13:29:19;14.13;;;9.10;;
26014;SDS011;13793;55.388;37.844;2023-11-21T13:31:50;14.13;;;8.60;;
26014;SDS011;13793;55.388;37.844;2023-11-21T13:34:22;14.33;;;9.03;;
26014;SDS011;13793;55.388;37.844;2023-11-21T13:36:54;13.27;;;8.40;;
26014;SDS011;13793;55.388;37.844;2023-11-21T13:39:26;13.83;;;8.43;;
26014;SDS011;13793;55.388;37.844;2023-11-21T13:42:01;11.23;;;7.80;;
26014;SDS011;13793;55.388;37.844;2023-11-21T13:44:32;16.33;;;8.13;;
26014;SDS011;13793;55.388;37.844;2023-11-21T13:47:05;13.87;;;8.57;;
26014;SDS011;13793;55.388;37.844;2023-11-21T13:49:36;18.20;;;10.50;;
26014;SDS011;13793;55.388;37.844;2023-11-21T13:52:09;14.80;;;10.50;;
26014;SDS011;13793;55.388;37.844;2023-11-21T13:54:41;17.67;;;9.60;;
26014;SDS011;13793;55.388;37.844;2023-11-21T13:57:12;17.13;;;11.10;;
26014;SDS011;13793;55.388;37.844;2023-11-21T13:59:43;12.33;;;8.23;;
26014;SDS011;13793;55.388;37.844;2023-11-21T14:02:15;12.83;;;7.97;;
26014;SDS011;13793;55.388;37.844;2023-11-21T14:04:46;11.07;;;8.70;;
26014;SDS011;13793;55.388;37.844;2023-11-21T14:07:25;22.63;;;8.83;;
26014;SDS011;13793;55.388;37.844;2023-11-21T14:10:04;14.13;;;8.73;;
26014;SDS011;13793;55.388;37.844;2023-11-21T14:12:40;11.55;;;7.75;;
26014;SDS011;13793;55.388;37.844;2023-11-21T14:15:12;14.83;;;8.87;;
26014;SDS011;13793;55.388;37.844;2023-11-21T14:17:44;12.47;;;8.30;;
26014;SDS011;13793;55.388;37.844;2023-11-21T14:20:16;12.57;;;8.57;;
26014;SDS011;13793;55.388;37.844;2023-11-21T14:22:48;14.10;;;8.57;;
26014;SDS011;13793;55.388;37.844;2023-11-21T14:25:20;15.80;;;9.07;;
26014;SDS011;13793;55.388;37.844;2023-11-21T14:27:51;14.63;;;8.80;;
26014;SDS011;13793;55.388;37.844;2023-11-21T14:30:22;15.23;;;8.97;;
26014;SDS011;13793;55.388;37.844;2023-11-21T14:32:55;17.53;;;9.23;;
26014;SDS011;13793;55.388;37.844;2023-11-21T14:35:26;17.63;;;9.30;;
26014;SDS011;13793;55.388;37.844;2023-11-21T14:37:58;20.20;;;9.00;;
26014;SDS011;13793;55.388;37.844;2023-11-21T14:40:31;20.13;;;8.90;;
26014;SDS011;13793;55.388;37.844;2023-11-21T14:43:05;14.57;;;8.93;;
26014;SDS011;13793;55.388;37.844;2023-11-21T14:45:40;23.60;;;9.30;;
26014;SDS011;13793;55.388;37.844;2023-11-21T14:48:11;16.33;;;9.60;;
26014;SDS011;13793;55.388;37.844;2023-11-21T14:50:47;21.33;;;10.00;;
26014;SDS011;13793;55.388;37.844;2023-11-21T14:53:19;19.43;;;10.83;;
26014;SDS011;13793;55.388;37.844;2023-11-21T14:55:52;21.20;;;10.17;;
26014;SDS011;13793;55.388;37.844;2023-11-21T14:58:24;18.70;;;10.73;;
26014;SDS011;13793;55.388;37.844;2023-11-21T15:00:55;22.07;;;10.10;;
26014;SDS011;13793;55.388;37.844;2023-11-21T15:03:28;18.60;;;10.23;;
26014;SDS011;13793;55.388;37.844;2023-11-21T15:06:04;21.80;;;10.20;;
26014;SDS011;13793;55.388;37.844;2023-11-21T15:08:52;22.87;;;10.80;;
26014;SDS011;13793;55.388;37.844;2023-11-21T15:11:26;18.90;;;10.30;;